Time;durP1;ratioP1;P1;durP2;ratioP2;P2;SDS_P1;SDS_P2;PMS_P1;PMS_P2;Temp;Humidity;BMP_temperature;BMP_pressure;BME280_temperature;BME280_humidity;BME280_pressure;Samples;Min_cycle;Max_cycle;Signal;HPM_P1;HPM_P2
2022/09/13 00:01:06;;;;;;;19.45;17.45;;;19.60;67.50;;;;;;5054452;28;20072;-66
2022/09/13 00:03:32;;;;;;;16.88;14.82;;;19.60;67.90;;;;;;5037332;28;20086;-66
2022/09/13 00:06:10;;;;;;;14.93;13.35;;;19.60;68.10;;;;;;5053891;28;20053;-66
2022/09/13 00:08:36;;;;;;;16.98;15.10;;;19.60;68.00;;;;;;5053927;28;20048;-66
2022/09/13 00:11:02;;;;;;;16.30;14.70;;;19.60;68.00;;;;;;5037567;28;20119;-66
2022/09/13 00:13:28;;;;;;;17.17;15.40;;;19.60;67.90;;;;;;5053445;28;20079;-66
2022/09/13 00:15:54;;;;;;;17.08;15.27;;;19.60;68.00;;;;;;5053836;28;20045;-66
2022/09/13 00:18:19;;;;;;;16.75;15.05;;;19.60;68.30;;;;;;5053857;28;20035;-66
2022/09/13 00:20:45;;;;;;;18.52;16.50;;;19.50;68.40;;;;;;5037401;28;20128;-66
2022/09/13 00:23:12;;;;;;;18.55;15.98;;;19.60;68.70;;;;;;5053751;28;20538;-66
2022/09/13 00:25:38;;;;;;;18.45;15.02;;;19.60;68.90;;;;;;5053011;28;20041;-66
2022/09/13 00:28:05;;;;;;;15.93;14.23;;;19.50;68.90;;;;;;5053500;28;20098;-66
2022/09/13 00:30:31;;;;;;;17.48;15.35;;;19.50;68.70;;;;;;5053381;28;20123;-66
2022/09/13 00:32:57;;;;;;;15.63;14.07;;;19.50;68.60;;;;;;5036211;28;20040;-66
2022/09/13 00:35:23;;;;;;;16.85;15.15;;;19.50;68.50;;;;;;5053411;28;20029;-66
2022/09/13 00:37:49;;;;;;;17.05;15.20;;;19.50;68.50;;;;;;5053293;28;20109;-66
2022/09/13 00:40:14;;;;;;;18.58;16.00;;;19.50;68.60;;;;;;5053539;28;20036;-66
2022/09/13 00:42:40;;;;;;;18.10;15.52;;;19.50;68.70;;;;;;5053366;28;20094;-66
2022/09/13 00:45:06;;;;;;;16.35;14.75;;;19.50;68.70;;;;;;5053340;28;20037;-66
2022/09/13 00:47:34;;;;;;;16.30;14.57;;;19.50;68.60;;;;;;5053587;28;20060;-66
2022/09/13 00:50:21;;;;;;;16.38;14.65;;;19.50;68.50;;;;;;5053802;28;20051;-66
2022/09/13 00:52:57;;;;;;;16.42;14.73;;;19.50;68.30;;;;;;5047077;28;20040;-66
2022/09/13 00:55:34;;;;;;;15.75;14.15;;;19.50;68.50;;;;;;5053368;28;20144;-66
2022/09/13 00:58:08;;;;;;;16.75;14.88;;;19.50;68.50;;;;;;5053403;28;20145;-66
2022/09/13 01:00:35;;;;;;;17.45;15.57;;;19.50;68.60;;;;;;5053147;28;20041;-66
2022/09/13 01:03:05;;;;;;;17.67;15.77;;;19.50;68.80;;;;;;5053449;28;20484;-66
2022/09/13 01:05:39;;;;;;;17.27;15.40;;;19.50;68.90;;;;;;5052934;28;20036;-66
2022/09/13 01:08:16;;;;;;;16.25;13.98;;;19.50;68.90;;;;;;5053435;28;20366;-66
2022/09/13 01:10:43;;;;;;;14.93;13.40;;;19.50;68.90;;;;;;5052784;28;20052;-66
2022/09/13 01:13:15;;;;;;;17.10;15.27;;;19.50;69.30;;;;;;5052457;28;20049;-67
2022/09/13 01:15:41;;;;;;;17.70;15.88;;;19.50;68.90;;;;;;5044981;28;20045;-67
2022/09/13 01:18:08;;;;;;;16.75;15.00;;;19.50;69.20;;;;;;5052501;28;20044;-66
2022/09/13 01:21:15;;;;;;;16.30;14.55;;;19.50;69.30;;;;;;5052723;28;20104;-67
2022/09/13 01:24:21;;;;;;;16.75;15.05;;;19.50;69.10;;;;;;5052247;28;20496;-67
2022/09/13 01:27:05;;;;;;;14.85;13.25;;;19.50;69.10;;;;;;5036240;28;20068;-66
2022/09/13 01:29:31;;;;;;;;;;;19.50;69.10;;;;;;5069257;28;20488;-66
2022/09/13 01:32:24;;;;;;;15.05;13.55;;;19.40;68.50;;;;;;5052104;28;19956;-66
2022/09/13 01:34:57;;;;;;;15.13;13.63;;;19.40;69.10;;;;;;5050512;28;20515;-66
2022/09/13 01:37:36;;;;;;;16.80;14.73;;;19.40;69.20;;;;;;5052573;28;20552;-66
2022/09/13 01:40:05;;;;;;;16.42;14.60;;;19.40;69.30;;;;;;5051948;28;20037;-66
2022/09/13 01:42:46;;;;;;;15.48;13.88;;;19.40;69.40;;;;;;5034568;28;20118;-67
2022/09/13 01:45:20;;;;;;;17.13;15.38;;;19.40;69.40;;;;;;5049709;28;20144;-66
2022/09/13 01:47:46;;;;;;;16.02;13.98;;;19.40;69.40;;;;;;5052106;28;20045;-66
2022/09/13 01:50:29;;;;;;;17.13;15.15;;;19.40;69.50;;;;;;5052388;28;20385;-67
2022/09/13 01:53:00;;;;;;;15.43;13.15;;;19.40;69.70;;;;;;5051203;28;20041;-67
2022/09/13 01:55:55;;;;;;;16.80;14.98;;;19.40;69.70;;;;;;5051583;28;20119;-67
2022/09/13 01:58:53;;;;;;;16.27;14.60;;;19.40;69.80;;;;;;5039063;28;20041;-66
2022/09/13 02:01:49;;;;;;;16.58;13.55;;;19.40;69.80;;;;;;5037377;28;20059;-67
2022/09/13 02:04:28;;;;;;;14.30;12.80;;;19.40;70.20;;;;;;5050740;28;20044;-67
2022/09/13 02:06:59;;;;;;;15.57;13.98;;;19.40;70.20;;;;;;5048455;28;20079;-67
2022/09/13 02:09:30;;;;;;;14.05;12.63;;;19.40;70.30;;;;;;5052011;28;20435;-67
2022/09/13 02:12:13;;;;;;;15.80;14.15;;;19.40;70.30;;;;;;5052149;28;20076;-67
2022/09/13 02:14:42;;;;;;;13.80;12.10;;;19.30;70.10;;;;;;5050838;28;20564;-67
2022/09/13 02:17:15;;;;;;;15.48;12.98;;;19.30;70.10;;;;;;5051665;28;20503;-67
2022/09/13 02:19:55;;;;;;;15.98;13.80;;;19.30;70.20;;;;;;5051935;28;20041;-66
2022/09/13 02:22:31;;;;;;;16.17;14.48;;;19.30;70.20;;;;;;5051358;28;20041;-66
2022/09/13 02:25:03;;;;;;;14.40;12.90;;;19.30;70.30;;;;;;5051129;28;20048;-66
2022/09/13 02:27:34;;;;;;;15.70;14.18;;;19.30;70.40;;;;;;5049263;28;20037;-67
2022/09/13 02:30:08;;;;;;;15.73;14.13;;;19.30;70.70;;;;;;5039942;28;20071;-66
2022/09/13 02:32:45;;;;;;;17.13;14.48;;;19.30;70.80;;;;;;5051804;28;20056;-67
2022/09/13 02:35:19;;;;;;;15.68;14.05;;;19.30;71.00;;;;;;5050800;28;20049;-67
2022/09/13 02:37:52;;;;;;;16.83;13.57;;;19.30;71.10;;;;;;5051648;28;20047;-66
2022/09/13 02:40:24;;;;;;;16.05;13.88;;;19.30;71.10;;;;;;5051803;28;20041;-66
2022/09/13 02:43:10;;;;;;;16.02;12.75;;;19.30;71.10;;;;;;5051219;28;20029;-67
2022/09/13 02:45:46;;;;;;;14.50;12.88;;;19.30;71.20;;;;;;5051460;28;20139;-66
2022/09/13 02:48:42;;;;;;;13.98;11.93;;;19.30;71.40;;;;;;5041376;28;20127;-67
2022/09/13 02:51:29;;;;;;;12.18;10.98;;;19.30;71.30;;;;;;5050817;28;20521;-67
2022/09/13 02:54:16;;;;;;;14.65;12.98;;;19.30;71.70;;;;;;5038679;28;20095;-67
2022/09/13 02:56:58;;;;;;;12.02;10.80;;;19.20;71.90;;;;;;5051031;28;20411;-67
2022/09/13 02:59:24;;;;;;;12.40;10.75;;;19.30;72.00;;;;;;5035408;28;20041;-67
2022/09/13 03:02:07;;;;;;;12.65;10.60;;;19.20;72.00;;;;;;5051409;28;20094;-66
2022/09/13 03:04:33;;;;;;;11.55;9.60;;;19.20;72.20;;;;;;5050272;28;20047;-66
2022/09/13 03:07:03;;;;;;;10.88;9.10;;;19.20;72.20;;;;;;5051278;28;20384;-67
2022/09/13 03:09:30;;;;;;;11.38;9.73;;;19.20;72.20;;;;;;5052422;28;20037;-67
2022/09/13 03:12:23;;;;;;;9.98;8.95;;;19.20;72.20;;;;;;5051142;28;20104;-67
2022/09/13 03:14:54;;;;;;;10.77;9.68;;;19.20;72.30;;;;;;5050290;28;20435;-67
2022/09/13 03:17:44;;;;;;;12.15;10.93;;;19.20;72.40;;;;;;5050669;28;20051;-67
2022/09/13 03:20:18;;;;;;;9.75;8.27;;;19.20;72.50;;;;;;5050501;28;20045;-67
2022/09/13 03:23:03;;;;;;;9.82;8.32;;;19.20;72.50;;;;;;5050813;28;20369;-67
2022/09/13 03:25:41;;;;;;;9.77;8.80;;;19.20;72.50;;;;;;5050112;28;20445;-67
2022/09/13 03:28:19;;;;;;;9.48;8.48;;;19.20;72.50;;;;;;5052177;28;20044;-67
2022/09/13 03:30:51;;;;;;;9.45;8.48;;;19.10;72.50;;;;;;5050430;28;20044;-66
2022/09/13 03:33:56;;;;;;;8.63;7.82;;;19.20;72.80;;;;;;5033758;28;20029;-67
2022/09/13 03:36:38;;;;;;;10.25;8.23;;;19.20;72.60;;;;;;5051337;28;20045;-67
2022/09/13 03:39:34;;;;;;;8.18;7.32;;;19.10;72.60;;;;;;5054692;28;20037;-67
2022/09/13 03:42:09;;;;;;;9.13;8.23;;;19.10;72.60;;;;;;5054825;28;20554;-67
2022/09/13 03:44:37;;;;;;;10.75;8.05;;;19.10;72.50;;;;;;5053697;28;20132;-67
2022/09/13 03:47:05;;;;;;;9.10;8.07;;;19.10;72.50;;;;;;5054752;28;20049;-67
2022/09/13 03:49:31;;;;;;;9.77;8.77;;;19.10;72.50;;;;;;5054693;28;20098;-67
2022/09/13 03:51:58;;;;;;;9.05;8.15;;;19.10;72.40;;;;;;5054510;28;20049;-67
2022/09/13 03:54:28;;;;;;;9.95;8.95;;;19.10;72.40;;;;;;5054015;28;20416;-67
2022/09/13 03:57:16;;;;;;;10.00;9.00;;;19.10;72.30;;;;;;5056010;28;20492;-67
2022/09/13 04:00:00;;;;;;;10.50;9.23;;;19.20;72.10;;;;;;5054401;28;20102;-67
2022/09/13 04:02:26;;;;;;;9.20;8.40;;;19.10;72.10;;;;;;5054082;28;20033;-67
2022/09/13 04:04:52;;;;;;;9.88;8.88;;;19.10;72.20;;;;;;5053877;28;20426;-66
2022/09/13 04:07:20;;;;;;;11.02;9.15;;;19.20;72.30;;;;;;5054023;28;20484;-66
2022/09/13 04:09:46;;;;;;;10.27;9.27;;;19.10;72.20;;;;;;5054637;28;20395;-67
2022/09/13 04:12:13;;;;;;;10.13;9.07;;;19.20;72.30;;;;;;5053949;28;20037;-67
2022/09/13 04:14:39;;;;;;;11.52;9.82;;;19.10;72.30;;;;;;5053311;28;20061;-67
2022/09/13 04:17:06;;;;;;;10.70;9.65;;;19.20;72.30;;;;;;5054016;28;20451;-67
2022/09/13 04:19:32;;;;;;;10.07;9.07;;;19.20;72.40;;;;;;5054110;28;20102;-67
2022/09/13 04:21:58;;;;;;;11.10;9.50;;;19.20;72.40;;;;;;5053562;28;20083;-67
2022/09/13 04:24:28;;;;;;;9.95;8.95;;;19.20;72.30;;;;;;5052930;28;20076;-67
2022/09/13 04:26:55;;;;;;;10.90;9.80;;;19.20;72.40;;;;;;5053657;28;20127;-67
2022/09/13 04:29:22;;;;;;;11.07;9.18;;;19.20;72.40;;;;;;5053649;28;20044;-67
2022/09/13 04:31:50;;;;;;;11.32;9.95;;;19.20;72.50;;;;;;5053378;28;20124;-67
2022/09/13 04:34:17;;;;;;;13.50;11.48;;;19.10;72.60;;;;;;5053486;28;20443;-67
2022/09/13 04:36:44;;;;;;;12.77;11.48;;;19.20;73.00;;;;;;5054728;28;20036;-67
2022/09/13 04:39:10;;;;;;;10.35;9.35;;;19.20;73.30;;;;;;5054911;28;20045;-67
2022/09/13 04:41:36;;;;;;;10.70;8.68;;;19.20;73.60;;;;;;5053491;28;20099;-67
2022/09/13 04:44:02;;;;;;;9.80;8.80;;;19.20;73.70;;;;;;5052650;28;20128;-67
2022/09/13 04:46:28;;;;;;;10.95;8.75;;;19.10;73.70;;;;;;5052745;28;20484;-67
2022/09/13 04:48:54;;;;;;;8.40;7.30;;;19.10;73.80;;;;;;5053260;28;20040;-67
2022/09/13 04:51:20;;;;;;;6.68;5.97;;;19.10;73.80;;;;;;5036598;28;20120;-67
2022/09/13 04:53:54;;;;;;;6.35;5.53;;;19.10;73.80;;;;;;5053197;28;20492;-67
2022/09/13 04:56:22;;;;;;;6.43;5.45;;;19.10;73.80;;;;;;5067773;28;20089;-67
2022/09/13 04:58:49;;;;;;;6.68;4.90;;;19.10;73.80;;;;;;5053513;28;20075;-67
2022/09/13 05:01:16;;;;;;;5.82;4.60;;;19.10;73.80;;;;;;5053604;28;20435;-67
2022/09/13 05:03:41;;;;;;;4.88;3.75;;;19.10;73.90;;;;;;5052832;28;20044;-67
2022/09/13 05:06:18;;;;;;;3.78;3.15;;;19.10;73.80;;;;;;5053133;28;20041;-67
2022/09/13 05:08:48;;;;;;;5.05;2.85;;;19.10;73.80;;;;;;5053315;28;20075;-67
2022/09/13 05:11:13;;;;;;;3.95;2.47;;;19.10;73.80;;;;;;5049930;28;20129;-67
2022/09/13 05:13:39;;;;;;;3.65;2.40;;;19.10;73.80;;;;;;5052831;28;20487;-67
2022/09/13 05:16:06;;;;;;;4.68;2.60;;;19.10;73.70;;;;;;5053111;28;20396;-67
2022/09/13 05:18:34;;;;;;;3.42;2.45;;;19.10;73.50;;;;;;5053035;28;20045;-68
2022/09/13 05:21:01;;;;;;;4.20;2.20;;;19.10;73.50;;;;;;5053381;28;20136;-68
2022/09/13 05:23:28;;;;;;;3.38;1.92;;;19.10;73.40;;;;;;5052774;28;20041;-68
2022/09/13 05:25:58;;;;;;;4.30;1.77;;;19.10;73.40;;;;;;5052262;28;20444;-68
2022/09/13 05:28:26;;;;;;;3.80;1.45;;;19.10;73.30;;;;;;5052338;28;20045;-68
2022/09/13 05:31:11;;;;;;;3.50;1.48;;;19.10;73.20;;;;;;5052549;28;20507;-68
2022/09/13 05:33:38;;;;;;;4.35;1.08;;;19.10;73.20;;;;;;5052261;28;20052;-68
2022/09/13 05:36:05;;;;;;;3.30;1.25;;;19.10;73.10;;;;;;5054026;28;20032;-68
2022/09/13 05:38:31;;;;;;;3.42;1.00;;;19.10;73.10;;;;;;5052247;28;20044;-68
2022/09/13 05:40:59;;;;;;;4.05;1.20;;;19.00;73.00;;;;;;5035459;28;20033;-68
2022/09/13 05:43:26;;;;;;;2.60;1.00;;;19.00;73.00;;;;;;5051612;28;20052;-67
2022/09/13 05:46:10;;;;;;;2.97;1.42;;;19.10;73.00;;;;;;5051620;28;20041;-67
2022/09/13 05:48:36;;;;;;;3.92;1.00;;;19.10;73.00;;;;;;5052480;28;20053;-67
2022/09/13 05:51:10;;;;;;;3.33;1.00;;;19.10;73.00;;;;;;5052252;28;20036;-67
2022/09/13 05:53:41;;;;;;;1.23;0.73;;;19.10;73.10;;;;;;5052692;28;20115;-67
2022/09/13 05:56:08;;;;;;;1.98;0.98;;;19.10;73.10;;;;;;5051753;28;20446;-67
2022/09/13 05:58:38;;;;;;;2.63;0.88;;;19.00;73.00;;;;;;5046322;28;20048;-71
2022/09/13 06:01:04;;;;;;;3.17;1.00;;;19.00;73.10;;;;;;5049124;28;20158;-67
2022/09/13 06:03:30;;;;;;;5.40;1.10;;;19.00;73.10;;;;;;5051894;28;20048;-67
2022/09/13 06:05:57;;;;;;;2.65;0.98;;;19.00;73.10;;;;;;5035856;28;20058;-67
2022/09/13 06:08:28;;;;;;;2.97;1.20;;;19.00;73.40;;;;;;5052170;28;20129;-67
2022/09/13 06:10:58;;;;;;;4.53;1.33;;;19.00;73.10;;;;;;5052100;28;20606;-67
2022/09/13 06:13:25;;;;;;;3.42;0.90;;;19.00;73.00;;;;;;5052870;28;20547;-67
2022/09/13 06:15:51;;;;;;;4.60;1.23;;;19.00;73.00;;;;;;5052187;28;20049;-68
2022/09/13 06:18:18;;;;;;;2.80;1.30;;;19.00;73.00;;;;;;5035475;28;20037;-66
2022/09/13 06:20:44;;;;;;;3.60;1.20;;;19.00;73.10;;;;;;5035261;28;20500;-66
2022/09/13 06:23:09;;;;;;;3.67;1.40;;;19.00;73.10;;;;;;5035459;28;20048;-66
2022/09/13 06:25:36;;;;;;;3.80;1.40;;;19.00;73.20;;;;;;5051310;28;20029;-66
2022/09/13 06:28:02;;;;;;;4.45;1.50;;;19.00;73.20;;;;;;5051780;28;20073;-65
2022/09/13 06:30:28;;;;;;;3.40;1.45;;;19.00;73.20;;;;;;5051878;28;20083;-66
2022/09/13 06:32:55;;;;;;;4.97;1.65;;;19.00;73.20;;;;;;5051895;28;20144;-66
2022/09/13 06:35:21;;;;;;;4.65;1.73;;;19.00;73.30;;;;;;5051616;28;20037;-66
2022/09/13 06:37:47;;;;;;;6.07;1.80;;;19.00;73.90;;;;;;5051692;28;20063;-66
2022/09/13 06:40:12;;;;;;;4.50;1.90;;;19.00;73.50;;;;;;5051630;28;20037;-66
2022/09/13 06:42:38;;;;;;;4.88;1.65;;;19.00;73.60;;;;;;5035123;28;20041;-66
2022/09/13 06:45:05;;;;;;;6.13;1.40;;;19.00;73.70;;;;;;5051424;28;20048;-66
2022/09/13 06:47:31;;;;;;;4.78;1.48;;;19.00;73.70;;;;;;5051821;28;20487;-65
2022/09/13 06:49:57;;;;;;;3.05;1.50;;;19.00;73.80;;;;;;5051928;28;20192;-66
2022/09/13 06:52:23;;;;;;;5.47;1.58;;;19.00;73.80;;;;;;5051560;28;20041;-65
2022/09/13 06:54:49;;;;;;;3.70;1.35;;;19.00;73.80;;;;;;5051378;28;20399;-65
2022/09/13 06:57:15;;;;;;;4.30;1.45;;;19.00;73.80;;;;;;5034984;28;20119;-67
2022/09/13 06:59:41;;;;;;;1.80;1.02;;;19.00;73.90;;;;;;5051533;28;20128;-66
2022/09/13 07:02:08;;;;;;;3.42;1.50;;;19.00;73.90;;;;;;5050984;28;20037;-67
2022/09/13 07:04:34;;;;;;;2.90;1.45;;;19.00;73.90;;;;;;5051071;28;20536;-66
2022/09/13 07:06:59;;;;;;;2.60;1.15;;;19.00;73.90;;;;;;5051324;28;20135;-66
2022/09/13 07:09:25;;;;;;;2.90;1.15;;;19.00;73.90;;;;;;5051247;28;20044;-66
2022/09/13 07:11:53;;;;;;;3.63;1.40;;;19.00;73.90;;;;;;5052359;28;20041;-66
2022/09/13 07:14:22;;;;;;;3.58;1.73;;;19.10;74.00;;;;;;5050867;28;20092;-66
2022/09/13 07:16:48;;;;;;;3.28;1.67;;;19.00;74.00;;;;;;5034565;28;20037;-65
2022/09/13 07:19:16;;;;;;;3.80;1.40;;;19.10;74.10;;;;;;5051274;28;20033;-65
2022/09/13 07:21:42;;;;;;;3.83;1.52;;;19.10;74.20;;;;;;5051079;28;20041;-67
2022/09/13 07:24:09;;;;;;;4.07;1.13;;;19.10;74.20;;;;;;5051104;28;20041;-66
2022/09/13 07:26:35;;;;;;;3.92;1.33;;;19.10;74.20;;;;;;5050983;28;20045;-66
2022/09/13 07:29:06;;;;;;;6.47;1.50;;;19.10;74.30;;;;;;5051245;28;20119;-66
2022/09/13 07:31:38;;;;;;;4.60;1.70;;;19.20;74.40;;;;;;5051219;28;20072;-66
2022/09/13 07:34:17;;;;;;;6.53;1.77;;;19.20;74.60;;;;;;5050511;28;20041;-66
2022/09/13 07:36:45;;;;;;;5.47;1.40;;;19.30;74.60;;;;;;5051242;28;20120;-66
2022/09/13 07:39:11;;;;;;;2.42;1.10;;;19.30;74.40;;;;;;5051217;28;20117;-67
2022/09/13 07:41:38;;;;;;;3.13;1.30;;;19.30;74.30;;;;;;5054486;28;20045;-67
2022/09/13 07:44:05;;;;;;;4.88;1.48;;;19.30;74.40;;;;;;5033562;28;20087;-66
2022/09/13 07:46:32;;;;;;;3.20;1.35;;;19.40;74.60;;;;;;5050813;28;20103;-67
2022/09/13 07:48:59;;;;;;;4.05;2.03;;;19.50;74.50;;;;;;5051251;28;20060;-67
2022/09/13 07:51:34;;;;;;;4.72;1.40;;;19.50;74.40;;;;;;5051190;28;20095;-67
2022/09/13 07:54:05;;;;;;;3.70;1.35;;;19.50;74.60;;;;;;5050392;28;20049;-67
2022/09/13 07:56:33;;;;;;;6.82;2.08;;;19.60;74.70;;;;;;5050903;28;20071;-67
2022/09/13 07:59:00;;;;;;;3.50;1.17;;;19.70;74.30;;;;;;5051039;28;20052;-66
2022/09/13 08:01:29;;;;;;;5.97;1.20;;;19.80;74.30;;;;;;5050710;28;20037;-66
2022/09/13 08:03:59;;;;;;;3.45;0.85;;;19.90;74.40;;;;;;5050478;28;20037;-66
2022/09/13 08:06:28;;;;;;;5.82;1.30;;;20.00;73.80;;;;;;5049517;28;20033;-66
2022/09/13 08:08:54;;;;;;;5.20;1.05;;;20.20;73.20;;;;;;5051139;28;20052;-66
2022/09/13 08:11:26;;;;;;;4.80;1.00;;;20.40;72.60;;;;;;5050781;28;20128;-68
2022/09/13 08:13:52;;;;;;;8.25;1.10;;;20.50;71.70;;;;;;5050459;28;20072;-68
2022/09/13 08:16:20;;;;;;;3.67;0.95;;;20.60;71.50;;;;;;5050450;28;20803;-68
2022/09/13 08:18:51;;;;;;;6.95;1.05;;;20.70;71.30;;;;;;5051054;28;20072;-68
2022/09/13 08:21:17;;;;;;;3.05;0.73;;;20.90;70.40;;;;;;5052298;28;20044;-68
2022/09/13 08:23:44;;;;;;;5.40;1.17;;;20.90;69.60;;;;;;5054182;28;20037;-68
2022/09/13 08:26:10;;;;;;;3.78;0.85;;;20.90;68.80;;;;;;5054054;28;20056;-68
2022/09/13 08:28:39;;;;;;;4.07;0.98;;;21.00;68.20;;;;;;5054291;28;20220;-68
2022/09/13 08:31:18;;;;;;;4.15;1.00;;;21.00;67.40;;;;;;5054206;28;20049;-68
2022/09/13 08:33:45;;;;;;;5.68;0.90;;;21.00;66.90;;;;;;5054127;28;20128;-68
2022/09/13 08:36:11;;;;;;;4.70;0.90;;;21.00;66.80;;;;;;5053910;28;20033;-68
2022/09/13 08:38:37;;;;;;;5.03;1.40;;;21.00;66.70;;;;;;5054024;28;20123;-68
2022/09/13 08:41:22;;;;;;;3.88;1.00;;;21.00;66.60;;;;;;5054105;28;20047;-68
2022/09/13 08:43:56;;;;;;;4.47;0.60;;;21.00;66.40;;;;;;5053545;28;20053;-68
2022/09/13 08:46:27;;;;;;;5.80;0.80;;;21.00;66.10;;;;;;5038745;28;20112;-68
2022/09/13 08:48:59;;;;;;;3.88;0.70;;;21.00;65.80;;;;;;5054175;28;20381;-68
2022/09/13 08:51:31;;;;;;;5.78;1.10;;;21.10;65.90;;;;;;5037103;28;20124;-68
2022/09/13 08:53:58;;;;;;;3.35;0.70;;;21.20;65.30;;;;;;5036720;28;20037;-68
2022/09/13 08:56:30;;;;;;;2.28;0.80;;;21.20;64.50;;;;;;5053656;28;20040;-68
2022/09/13 08:59:34;;;;;;;5.50;0.80;;;21.30;63.80;;;;;;5070561;28;20393;-68
2022/09/13 09:02:23;;;;;;;2.83;0.90;;;21.40;63.40;;;;;;5053583;28;20518;-67
2022/09/13 09:05:01;;;;;;;3.92;0.60;;;21.50;63.40;;;;;;5052961;28;20484;-67
2022/09/13 09:07:32;;;;;;;5.13;1.15;;;21.60;63.00;;;;;;5053163;28;20037;-68
2022/09/13 09:10:06;;;;;;;4.28;1.13;;;21.70;63.00;;;;;;5053635;28;20373;-67
2022/09/13 09:12:37;;;;;;;2.63;0.50;;;21.90;62.30;;;;;;5040234;28;20439;-67
2022/09/13 09:15:15;;;;;;;2.08;0.60;;;22.10;61.50;;;;;;5052964;28;20057;-68
2022/09/13 09:17:59;;;;;;;2.90;0.85;;;22.10;60.70;;;;;;5053609;28;20123;-68
2022/09/13 09:20:52;;;;;;;3.42;0.80;;;22.10;59.90;;;;;;5053366;28;20051;-68
2022/09/13 09:23:29;;;;;;;1.88;0.50;;;22.30;60.30;;;;;;5052787;28;20128;-68
2022/09/13 09:26:19;;;;;;;2.03;0.55;;;22.30;59.50;;;;;;5036333;28;20118;-68
2022/09/13 09:28:54;;;;;;;3.13;0.95;;;22.40;58.80;;;;;;5052816;28;20081;-68
2022/09/13 09:31:57;;;;;;;2.95;0.60;;;22.40;58.80;;;;;;5053052;28;20124;-68
2022/09/13 09:34:47;;;;;;;1.90;0.40;;;22.50;58.40;;;;;;5052717;28;20404;-68
2022/09/13 09:37:20;;;;;;;3.38;0.60;;;22.60;58.10;;;;;;5041086;28;20112;-68
2022/09/13 09:39:47;;;;;;;2.20;0.53;;;22.60;57.90;;;;;;5052936;28;20052;-68
2022/09/13 09:42:20;;;;;;;3.72;0.70;;;22.70;57.80;;;;;;5052780;28;20090;-68
2022/09/13 09:45:35;;;;;;;1.50;0.40;;;22.90;57.40;;;;;;5052542;28;20044;-68
2022/09/13 09:48:08;;;;;;;1.52;0.45;;;22.90;56.30;;;;;;5023290;28;20057;-68
2022/09/13 09:50:42;;;;;;;2.90;0.82;;;23.10;56.60;;;;;;5052875;28;20358;-68
2022/09/13 09:53:17;;;;;;;3.60;0.60;;;23.10;56.10;;;;;;5052556;28;20040;-68
2022/09/13 09:55:47;;;;;;;2.00;0.85;;;23.10;55.80;;;;;;5052281;28;20044;-68
2022/09/13 09:58:15;;;;;;;7.32;1.10;;;23.10;55.90;;;;;;5052377;28;20060;-67
2022/09/13 10:00:52;;;;;;;3.17;0.68;;;23.10;55.80;;;;;;5052619;28;20080;-68
2022/09/13 10:03:20;;;;;;;4.50;0.65;;;23.10;55.70;;;;;;5052260;28;20449;-67
2022/09/13 10:05:46;;;;;;;6.35;1.13;;;23.00;55.50;;;;;;5052424;28;20062;-67
2022/09/13 10:08:33;;;;;;;2.83;0.63;;;23.10;55.50;;;;;;5052036;28;20536;-67
2022/09/13 10:11:00;;;;;;;2.72;0.45;;;23.10;55.80;;;;;;5051977;28;20086;-67
2022/09/13 10:13:28;;;;;;;2.13;0.68;;;23.10;55.70;;;;;;5051310;28;20048;-67
2022/09/13 10:15:57;;;;;;;3.78;0.40;;;23.20;54.80;;;;;;5051598;28;20045;-68
2022/09/13 10:18:25;;;;;;;4.15;0.43;;;23.20;53.70;;;;;;5050812;28;20074;-68
2022/09/13 10:21:02;;;;;;;3.47;0.93;;;23.30;53.90;;;;;;5059708;28;20040;-68
2022/09/13 10:23:29;;;;;;;2.33;0.60;;;23.30;53.60;;;;;;5051566;28;20045;-68
2022/09/13 10:26:22;;;;;;;3.08;0.50;;;23.40;54.10;;;;;;5052092;28;20045;-68
2022/09/13 10:29:02;;;;;;;3.78;0.90;;;23.50;54.10;;;;;;5036679;28;20056;-68
2022/09/13 10:31:38;;;;;;;2.60;0.60;;;23.50;53.90;;;;;;5052024;28;20048;-68
2022/09/13 10:34:09;;;;;;;3.47;0.70;;;23.50;53.60;;;;;;5051867;28;20045;-68
2022/09/13 10:36:36;;;;;;;3.55;0.68;;;23.40;53.30;;;;;;5051879;28;20037;-68
2022/09/13 10:39:17;;;;;;;5.20;1.20;;;23.40;53.60;;;;;;5051764;28;20044;-68
2022/09/13 10:41:53;;;;;;;2.15;0.57;;;23.50;53.80;;;;;;5051107;28;20826;-68
2022/09/13 10:44:45;;;;;;;1.67;0.47;;;23.50;53.80;;;;;;5051123;28;20515;-68
2022/09/13 10:47:21;;;;;;;2.60;0.63;;;23.50;53.00;;;;;;5050832;28;20033;-68
2022/09/13 10:49:51;;;;;;;3.90;0.93;;;23.50;52.40;;;;;;5051471;28;20041;-68
2022/09/13 10:52:30;;;;;;;3.72;0.73;;;23.60;52.00;;;;;;5051516;28;20048;-69
2022/09/13 10:55:14;;;;;;;2.05;0.63;;;23.60;52.10;;;;;;5051446;28;20045;-69
2022/09/13 10:57:40;;;;;;;5.05;0.80;;;23.70;52.20;;;;;;5052089;28;20097;-68
2022/09/13 11:00:10;;;;;;;1.80;0.38;;;23.70;51.80;;;;;;5049525;28;20040;-68
2022/09/13 11:02:54;;;;;;;6.15;1.20;;;23.70;51.40;;;;;;5067583;28;21372;-68
2022/09/13 11:05:23;;;;;;;5.07;1.15;;;23.70;50.90;;;;;;5066088;28;20056;-68
2022/09/13 11:08:06;;;;;;;3.05;0.60;;;23.80;50.60;;;;;;5063424;28;20036;-67
2022/09/13 11:10:41;;;;;;;2.90;0.65;;;23.80;50.10;;;;;;5065203;28;20044;-67
2022/09/13 11:13:13;;;;;;;1.15;0.45;;;23.80;49.70;;;;;;5066406;28;20486;-66
2022/09/13 11:15:54;;;;;;;2.25;0.77;;;23.80;49.60;;;;;;5063966;28;20094;-66
2022/09/13 11:18:36;;;;;;;3.20;0.68;;;23.80;49.70;;;;;;5064332;28;20415;-66
2022/09/13 11:21:26;;;;;;;3.53;0.75;;;23.80;49.80;;;;;;5066194;28;20040;-66
2022/09/13 11:24:21;;;;;;;3.95;0.70;;;23.70;49.40;;;;;;5051846;28;20049;-66
2022/09/13 11:26:59;;;;;;;3.22;0.77;;;23.70;49.80;;;;;;5047299;28;20044;-66
2022/09/13 11:29:43;;;;;;;3.95;0.50;;;23.70;50.20;;;;;;5065253;28;20075;-66
2022/09/13 11:32:12;;;;;;;;;;;23.70;50.90;;;;;;5067652;28;20357;-66
2022/09/13 11:34:50;;;;;;;5.47;0.90;;;23.60;50.30;;;;;;5067071;28;20007;-66
2022/09/13 11:37:38;;;;;;;1.80;0.70;;;23.60;50.20;;;;;;5064919;28;20051;-66
2022/09/13 11:40:33;;;;;;;4.20;0.77;;;23.60;50.30;;;;;;5064773;28;20454;-67
2022/09/13 11:43:02;;;;;;;4.75;0.70;;;23.60;50.40;;;;;;5066972;28;20037;-66
2022/09/13 11:45:30;;;;;;;6.03;0.70;;;23.60;50.00;;;;;;5066631;28;20028;-67
2022/09/13 11:48:35;;;;;;;2.60;0.50;;;23.60;50.10;;;;;;5064435;28;20030;-66
2022/09/13 11:51:06;;;;;;;3.20;0.50;;;23.60;49.90;;;;;;5063673;28;20052;-70
2022/09/13 11:54:01;;;;;;;4.68;0.90;;;23.50;50.20;;;;;;5064383;28;20098;-69
2022/09/13 11:56:37;;;;;;;5.45;1.02;;;23.60;50.20;;;;;;5050107;28;20044;-70
2022/09/13 11:59:28;;;;;;;2.40;0.60;;;23.60;50.40;;;;;;5070099;28;20119;-70
2022/09/13 12:02:04;;;;;;;4.47;0.50;;;23.60;50.00;;;;;;5068829;28;20109;-70
2022/09/13 12:05:06;;;;;;;4.85;1.13;;;23.60;50.20;;;;;;5069987;28;20127;-70
2022/09/13 12:07:58;;;;;;;3.70;0.68;;;23.60;49.60;;;;;;5051345;28;20056;-70
2022/09/13 12:10:32;;;;;;;2.95;0.68;;;23.70;48.90;;;;;;5065503;28;20099;-70
2022/09/13 12:13:01;;;;;;;2.70;0.80;;;23.70;48.50;;;;;;5054522;28;20041;-70
2022/09/13 12:15:37;;;;;;;2.20;0.70;;;23.70;48.30;;;;;;5053788;28;20048;-70
2022/09/13 12:18:13;;;;;;;3.92;0.50;;;23.70;48.20;;;;;;5053653;28;20095;-70
2022/09/13 12:20:46;;;;;;;3.45;0.68;;;23.70;47.30;;;;;;5054266;28;20480;-70
2022/09/13 12:23:18;;;;;;;2.78;0.60;;;23.70;46.80;;;;;;5054560;28;20087;-71
2022/09/13 12:26:24;;;;;;;2.75;0.47;;;23.70;46.90;;;;;;5050791;28;20123;-70
2022/09/13 12:29:01;;;;;;;3.42;0.73;;;23.70;47.00;;;;;;5052552;28;20139;-70
2022/09/13 12:31:30;;;;;;;2.33;0.50;;;23.70;47.10;;;;;;5055405;28;20488;-70
2022/09/13 12:33:56;;;;;;;1.98;0.57;;;23.70;46.90;;;;;;5053997;28;20447;-70
2022/09/13 12:36:52;;;;;;;3.03;0.55;;;23.70;47.10;;;;;;5054331;28;20419;-70
2022/09/13 12:39:52;;;;;;;2.00;0.43;;;23.80;47.90;;;;;;5057673;28;20488;-70
2022/09/13 12:42:34;;;;;;;2.50;0.75;;;23.80;47.90;;;;;;5054008;28;20040;-70
2022/09/13 12:45:36;;;;;;;3.60;0.75;;;23.80;47.60;;;;;;5049804;28;20444;-71
2022/09/13 12:48:26;;;;;;;5.85;1.00;;;23.90;48.10;;;;;;5054904;28;20097;-71
2022/09/13 12:51:00;;;;;;;3.85;0.57;;;23.90;47.60;;;;;;5053988;28;20079;-71
2022/09/13 12:54:06;;;;;;;2.90;0.70;;;23.90;47.30;;;;;;5053408;28;20052;-71
2022/09/13 12:56:54;;;;;;;5.10;0.95;;;24.00;47.10;;;;;;5039213;28;20119;-70
2022/09/13 12:59:40;;;;;;;4.35;0.80;;;24.00;46.10;;;;;;5047698;28;20033;-70
2022/09/13 13:02:25;;;;;;;2.53;0.60;;;23.90;47.10;;;;;;5036745;28;20120;-70
2022/09/13 13:04:56;;;;;;;4.55;0.85;;;23.90;47.60;;;;;;5052908;28;20047;-70
2022/09/13 13:07:23;;;;;;;5.05;0.90;;;23.90;48.00;;;;;;5053056;28;20132;-70
2022/09/13 13:09:52;;;;;;;4.40;0.70;;;23.90;47.50;;;;;;5052896;28;20143;-70
2022/09/13 13:12:35;;;;;;;3.08;0.52;;;23.90;47.60;;;;;;5052755;28;20483;-71
2022/09/13 13:15:16;;;;;;;1.77;0.60;;;23.90;47.50;;;;;;5052290;28;20195;-70
2022/09/13 13:17:55;;;;;;;2.90;0.60;;;23.90;47.30;;;;;;5059811;28;20072;-70